Airfield :







YOU CAN JOIN US ON...

 
LOGIN :

Register | Disclaimer

   EN    FR    IT 

 









Legend :    VFR   Marginal VFR   IFR   Intensive IFR   Very Intensive IFR
Visi :
Ceiling :
>= 8 km
>= 3000ft
5 to 8 km
1000 to 3000 ft
1500m to 5 km
500 to 1000 ft
800 to 1500m
200 to 500 ft
< 800m
< 200 ft
Symbols :   Thunderstorms  Fog  Heavy snow  Heavy precipitations  Wind > 20 kt







- Airport Elevation : 1808 ft
- IATA code : YWK


CYWK - Wabush

CURRENT METAR :
  • 221300Z 31011G17KT 15SM -SHGR BKN023 M06/M11 A3019 RMK CU7 SLP258

EXPIRED METARs :
  • 221200Z 32013G19KT 15SM -SHSN BKN023 M06/M12 A3018 RMK CU7 SLP253
  • 221100Z 30009G18KT 15SM -SHSN BKN023 M07/M12 A3017 RMK CU7 SLP249

TAF TAF CYWK
Valid from the 22 at 14:00 until the 23 at 02:00 UTC


221343Z 2214/2302 31012G22KT P6SM BKN025
TEMPO 2214/2218 5SM -SHSN OVC020
FM221800 29010G20KT P6SM SCT020
TEMPO 2218/2302 BKN020
BECMG 2221/2223 28007KT RMK NXT FCST BY 222000Z
CZUL FIR / North America



MET'MAP, your aeronautical weather chart ! - Copyright ORBIFLY December 2007 - Disclaimer

ORBIFLY MET'MAP TEAM :

Programming & Development : Alexandra Zaïnal
Concept & Development : Baudouin d'Aumeries
Co-Development & Prog : Marc-Olivier Méhu
Technical & hardware support : Manuel Goepfert

Contact : metmap@orbifly.com




SOURCES & CREDITS :

   NOAA